Time;durP1;ratioP1;P1;durP2;ratioP2;P2;SDS_P1;SDS_P2;PMS_P1;PMS_P2;Temp;Humidity;BMP_temperature;BMP_pressure;BME280_temperature;BME280_humidity;BME280_pressure;Samples;Min_cycle;Max_cycle;Signal;HPM_P1;HPM_P2
2023/01/22 00:01:33;;;;;;;5.38;2.92;;;;;;;-1.42;52.51;103450.09;4997393;28;20459;-77
2023/01/22 00:03:59;;;;;;;8.48;2.97;;;;;;;-1.48;52.69;103449.75;4995621;28;20116;-78
2023/01/22 00:06:25;;;;;;;7.47;2.70;;;;;;;-1.15;51.87;103447.16;4981206;28;20070;-77
2023/01/22 00:08:50;;;;;;;6.95;2.22;;;;;;;-1.13;51.76;103447.19;5009400;28;20041;-78
2023/01/22 00:11:17;;;;;;;6.70;2.50;;;;;;;-1.31;51.88;103445.47;5014171;28;20030;-77
2023/01/22 00:13:43;;;;;;;17.05;3.75;;;;;;;-1.18;51.70;103441.84;4983340;28;20581;-77
2023/01/22 00:16:13;;;;;;;5.30;2.58;;;;;;;-1.34;52.50;103437.63;5019630;28;20029;-76
2023/01/22 00:18:39;;;;;;;5.57;2.70;;;;;;;-1.43;52.58;103432.91;5026357;28;20034;-77
2023/01/22 00:21:05;;;;;;;5.07;3.17;;;;;;;-1.30;52.02;103439.56;5001327;28;20082;-78
2023/01/22 00:23:31;;;;;;;6.30;3.22;;;;;;;-1.18;51.96;103434.16;4993150;28;20038;-78
2023/01/22 00:26:12;;;;;;;5.05;2.63;;;;;;;-1.24;52.36;103438.97;5017433;28;20637;-76
2023/01/22 00:28:43;;;;;;;5.00;2.90;;;;;;;-1.16;51.99;103437.66;5018217;28;20476;-76
2023/01/22 00:31:09;;;;;;;3.65;2.72;;;;;;;-1.19;52.09;103434.97;5005802;28;20515;-76
2023/01/22 00:33:37;;;;;;;8.27;2.05;;;;;;;-1.40;52.95;103429.59;4979165;28;20049;-76
2023/01/22 00:36:04;;;;;;;5.43;2.28;;;;;;;-1.42;52.96;103429.56;5003898;28;20036;-76
2023/01/22 00:38:30;;;;;;;4.07;2.10;;;;;;;-1.20;52.36;103430.63;5019182;28;20146;-76
2023/01/22 00:40:59;;;;;;;9.15;2.20;;;;;;;-0.94;51.46;103423.38;5019543;28;20180;-76
2023/01/22 00:43:25;;;;;;;3.88;1.90;;;;;;;-1.51;52.30;103429.09;5016150;28;20381;-77
2023/01/22 00:45:50;;;;;;;2.20;1.55;;;;;;;-1.25;51.75;103421.81;4994891;28;20045;-77
2023/01/22 00:48:16;;;;;;;3.83;1.05;;;;;;;-1.34;51.71;103416.22;5011541;28;20034;-76
2023/01/22 00:50:41;;;;;;;3.22;1.70;;;;;;;-1.60;52.06;103423.47;5011503;28;20096;-75
2023/01/22 00:53:07;;;;;;;3.50;1.70;;;;;;;-1.44;51.74;103415.75;5017521;28;20124;-76
2023/01/22 00:55:32;;;;;;;7.57;1.58;;;;;;;-1.35;51.85;103417.00;5006373;28;20399;-76
2023/01/22 00:57:58;;;;;;;4.35;1.00;;;;;;;-1.54;52.20;103413.53;5007455;28;20420;-77
2023/01/22 01:00:23;;;;;;;2.47;1.50;;;;;;;-1.35;52.00;103414.44;4978921;28;20019;-76
2023/01/22 01:05:33;;;;;;;6.97;1.25;;;;;;;-1.11;51.51;103415.66;5026304;28;20072;-77
2023/01/22 01:07:59;;;;;;;2.95;1.48;;;;;;;-1.08;50.95;103420.97;4981276;28;20498;-76
2023/01/22 01:10:24;;;;;;;3.45;0.80;;;;;;;-1.09;51.11;103423.47;5007700;28;20080;-76
2023/01/22 01:12:51;;;;;;;3.25;1.77;;;;;;;-1.15;51.39;103424.06;5006805;28;20062;-77
2023/01/22 01:15:18;;;;;;;3.78;1.77;;;;;;;-1.11;51.21;103422.50;4989101;28;20026;-77
2023/01/22 01:17:45;;;;;;;4.28;1.42;;;;;;;-0.86;50.77;103417.81;5000542;28;20056;-77
2023/01/22 01:20:11;;;;;;;2.78;1.25;;;;;;;-0.93;50.95;103409.72;4976098;28;20091;-76
2023/01/22 01:22:37;;;;;;;3.75;1.98;;;;;;;-0.67;50.43;103418.69;5023441;28;20045;-76
2023/01/22 01:25:03;;;;;;;7.40;1.63;;;;;;;-0.81;50.86;103416.34;5003959;28;20445;-77
2023/01/22 01:27:30;;;;;;;7.40;2.30;;;;;;;-0.66;50.52;103420.44;4981483;28;20100;-77
2023/01/22 01:29:59;;;;;;;4.78;2.05;;;;;;;-0.67;50.77;103413.53;4992138;28;20041;-78
2023/01/22 01:32:24;;;;;;;7.82;1.60;;;;;;;-0.65;50.55;103417.94;5001132;28;20064;-78
2023/01/22 01:34:50;;;;;;;12.93;2.15;;;;;;;-0.79;51.00;103413.84;5009735;28;20511;-78
2023/01/22 01:37:16;;;;;;;5.68;1.73;;;;;;;-0.76;50.96;103413.97;5001540;28;20057;-77
2023/01/22 01:39:41;;;;;;;6.82;1.92;;;;;;;-0.64;50.74;103414.59;4999175;28;20103;-78
2023/01/22 01:42:08;;;;;;;3.75;1.83;;;;;;;-0.66;50.67;103418.75;4971996;28;20096;-77
2023/01/22 01:44:35;;;;;;;2.90;1.80;;;;;;;-0.62;50.65;103414.63;4982856;28;20107;-77
2023/01/22 01:47:07;;;;;;;3.20;2.28;;;;;;;-0.74;50.75;103411.50;5007655;28;20430;-77
2023/01/22 01:49:36;;;;;;;3.10;1.95;;;;;;;-0.94;50.88;103406.28;5010481;28;20049;-78
2023/01/22 01:52:05;;;;;;;3.20;1.40;;;;;;;-0.81;50.64;103410.31;4980402;28;20050;-76
2023/01/22 01:54:31;;;;;;;4.45;1.85;;;;;;;-1.08;51.17;103404.69;5007874;28;20037;-77
2023/01/22 01:57:20;;;;;;;3.60;1.80;;;;;;;-1.11;51.03;103402.84;4992942;28;20037;-77
2023/01/22 01:59:47;;;;;;;2.78;1.60;;;;;;;-1.21;51.23;103403.22;4992438;28;20048;-76
2023/01/22 02:02:14;;;;;;;5.35;1.85;;;;;;;-1.42;51.97;103411.59;5016404;28;20030;-77
2023/01/22 02:04:39;;;;;;;3.95;1.40;;;;;;;-1.16;51.22;103404.31;4991916;28;20029;-76
2023/01/22 02:07:05;;;;;;;5.38;2.35;;;;;;;-1.22;51.61;103417.72;4982165;28;20410;-77
2023/01/22 02:09:33;;;;;;;3.28;1.70;;;;;;;-1.19;51.26;103411.88;4978108;28;20045;-77
2023/01/22 02:11:58;;;;;;;6.18;2.13;;;;;;;-1.12;51.08;103418.19;4991365;28;20037;-76
2023/01/22 02:14:31;;;;;;;5.32;1.73;;;;;;;-1.29;51.59;103414.75;5013210;28;20431;-76
2023/01/22 02:17:12;;;;;;;7.15;2.72;;;;;;;-1.40;51.46;103415.13;4971969;28;20045;-77
2023/01/22 02:19:39;;;;;;;5.50;1.83;;;;;;;-1.40;51.26;103417.69;4984560;28;20030;-77
2023/01/22 02:22:16;;;;;;;3.00;1.80;;;;;;;-1.36;51.54;103413.56;4984571;28;20423;-76
2023/01/22 02:24:42;;;;;;;3.83;1.90;;;;;;;-1.42;51.28;103408.13;4971547;28;20030;-78
2023/01/22 02:27:08;;;;;;;4.43;2.25;;;;;;;-1.22;50.82;103414.25;5003246;28;20046;-78
2023/01/22 02:29:34;;;;;;;4.03;2.20;;;;;;;-1.81;52.11;103405.28;5000550;28;22882;-75
2023/01/22 02:31:59;;;;;;;4.22;2.05;;;;;;;-1.50;51.53;103404.31;4999157;28;20137;-78
2023/01/22 02:34:25;;;;;;;8.57;2.47;;;;;;;-1.79;52.30;103411.38;4982992;28;20051;-77
2023/01/22 02:36:52;;;;;;;4.07;2.65;;;;;;;-1.44;51.35;103400.38;4984113;28;20045;-76
2023/01/22 02:39:17;;;;;;;2.97;1.88;;;;;;;-1.63;52.24;103406.25;4986197;28;20037;-77
2023/01/22 02:41:44;;;;;;;5.55;2.10;;;;;;;-1.77;52.31;103408.91;4986680;28;20057;-78
2023/01/22 02:44:11;;;;;;;5.28;1.92;;;;;;;-1.43;51.63;103412.38;4986719;28;20036;-76
2023/01/22 02:46:36;;;;;;;5.15;2.05;;;;;;;-1.17;51.12;103403.44;4982609;28;20066;-75
2023/01/22 02:49:03;;;;;;;4.75;2.45;;;;;;;-1.17;51.20;103410.25;4985862;28;20037;-77
2023/01/22 02:51:31;;;;;;;3.38;2.00;;;;;;;-1.04;50.96;103394.69;4998210;28;20042;-77
2023/01/22 02:53:57;;;;;;;4.03;1.77;;;;;;;-1.22;51.25;103401.44;5000869;28;20048;-77
2023/01/22 02:56:23;;;;;;;2.75;1.90;;;;;;;-1.20;51.42;103405.88;4983180;28;20073;-75
2023/01/22 02:58:49;;;;;;;3.22;1.80;;;;;;;-1.28;51.64;103396.00;4988183;28;20034;-77
2023/01/22 03:01:21;;;;;;;7.95;2.17;;;;;;;-1.19;51.33;103393.91;4998943;28;20089;-76
2023/01/22 03:03:51;;;;;;;6.47;2.03;;;;;;;-1.08;50.92;103390.16;5000716;28;20030;-75
2023/01/22 03:06:20;;;;;;;4.15;1.70;;;;;;;-1.20;51.67;103384.41;4985691;28;20037;-75
2023/01/22 03:08:52;;;;;;;5.32;2.30;;;;;;;-1.31;51.72;103381.31;5001270;28;20112;-76
2023/01/22 03:11:18;;;;;;;6.15;2.10;;;;;;;-1.32;51.50;103383.84;4986674;28;20573;-77
2023/01/22 03:21:57;;;;;;;3.95;2.42;;;;;;;-1.02;50.71;103369.97;4998691;28;20033;-76
2023/01/22 03:24:24;;;;;;;3.53;1.77;;;;;;;-1.09;50.97;103377.25;4999804;28;20030;-78
2023/01/22 03:26:50;;;;;;;4.72;1.88;;;;;;;-1.07;50.94;103378.22;4983553;28;20515;-77
2023/01/22 03:29:15;;;;;;;3.15;1.58;;;;;;;-1.07;50.79;103371.38;4985056;28;20479;-75
2023/01/22 03:31:41;;;;;;;4.40;1.85;;;;;;;-1.16;50.78;103365.81;4982877;28;20053;-75
2023/01/22 03:34:06;;;;;;;3.38;2.15;;;;;;;-1.27;51.44;103384.94;4985122;28;20121;-76
2023/01/22 03:36:32;;;;;;;4.57;1.80;;;;;;;-1.28;50.93;103390.88;4984950;28;20042;-76
2023/01/22 03:39:01;;;;;;;4.97;2.25;;;;;;;-1.53;52.27;103383.63;4988034;28;20038;-75
2023/01/22 03:41:28;;;;;;;5.07;1.88;;;;;;;-1.63;51.86;103382.28;4984795;28;20070;-77
2023/01/22 03:43:53;;;;;;;2.92;1.67;;;;;;;-1.33;51.01;103377.81;4985944;28;20534;-75
2023/01/22 03:46:23;;;;;;;4.72;1.27;;;;;;;-1.17;50.73;103394.84;4999627;28;20045;-76
2023/01/22 03:48:52;;;;;;;2.58;1.73;;;;;;;-0.95;49.98;103385.66;4984968;28;20030;-76
2023/01/22 03:51:19;;;;;;;4.63;2.17;;;;;;;-1.11;50.76;103384.00;4987208;28;20053;-77
2023/01/22 03:53:45;;;;;;;2.40;1.85;;;;;;;-1.08;50.63;103386.72;4989004;28;20034;-77
2023/01/22 03:56:14;;;;;;;3.75;2.25;;;;;;;-1.12;50.53;103384.81;5002272;28;20029;-77
2023/01/22 03:58:41;;;;;;;4.75;1.35;;;;;;;-1.12;50.80;103378.00;4986425;28;20034;-77
2023/01/22 04:01:10;;;;;;;3.42;1.75;;;;;;;-1.22;50.63;103375.75;5003342;28;20026;-75
2023/01/22 04:03:36;;;;;;;3.70;2.20;;;;;;;-1.05;50.37;103379.19;4986186;28;20041;-78
2023/01/22 04:06:04;;;;;;;5.57;1.83;;;;;;;-1.21;50.97;103377.53;4990835;28;20034;-76
2023/01/22 04:08:33;;;;;;;4.82;1.60;;;;;;;-1.10;50.83;103375.50;4999758;28;20096;-76
2023/01/22 04:10:59;;;;;;;3.22;2.78;;;;;;;-1.02;50.52;103384.47;4987324;28;20543;-76
2023/01/22 04:13:27;;;;;;;6.13;1.85;;;;;;;-1.20;51.13;103384.41;4967088;28;20037;-76
2023/01/22 04:15:54;;;;;;;6.72;2.33;;;;;;;-1.10;50.76;103390.91;5001063;28;20042;-76
2023/01/22 04:18:55;;;;;;;5.00;2.28;;;;;;;-1.08;50.84;103390.16;5003674;28;20394;-76
2023/01/22 04:21:47;;;;;;;4.60;2.15;;;;;;;-0.85;50.32;103393.00;4988451;28;20038;-76
2023/01/22 04:24:13;;;;;;;4.15;1.55;;;;;;;-0.81;50.21;103394.91;4987520;28;20029;-78
2023/01/22 04:26:39;;;;;;;5.03;2.55;;;;;;;-1.02;50.53;103399.88;4985077;28;20069;-77
2023/01/22 04:29:05;;;;;;;3.75;2.50;;;;;;;-1.01;50.81;103397.41;4989961;28;20030;-76
2023/01/22 04:31:30;;;;;;;4.88;2.30;;;;;;;-0.93;50.57;103397.75;4985854;28;20069;-77
2023/01/22 04:34:14;;;;;;;5.07;2.10;;;;;;;-0.93;50.51;103389.19;4987261;28;20096;-75
2023/01/22 04:36:44;;;;;;;2.78;1.30;;;;;;;-1.08;50.94;103384.16;4986481;28;20514;-76
2023/01/22 04:39:10;;;;;;;6.20;2.47;;;;;;;-1.15;51.10;103393.25;4989345;28;20033;-76
2023/01/22 04:41:36;;;;;;;4.65;2.50;;;;;;;-1.28;51.10;103390.88;4999971;28;20084;-76
2023/01/22 04:44:01;;;;;;;3.25;1.73;;;;;;;-1.31;51.18;103396.72;5003371;28;20037;-76
2023/01/22 04:46:29;;;;;;;5.88;1.88;;;;;;;-1.26;51.08;103399.53;5003634;28;20045;-75
2023/01/22 04:48:55;;;;;;;6.40;1.75;;;;;;;-1.27;50.82;103392.63;4986202;28;20719;-77
2023/01/22 04:51:21;;;;;;;4.68;2.05;;;;;;;-1.17;50.69;103389.72;4983863;28;20053;-78
2023/01/22 04:53:47;;;;;;;3.75;1.83;;;;;;;-1.20;50.98;103399.81;4983861;28;20036;-75
2023/01/22 04:56:12;;;;;;;4.63;2.13;;;;;;;-1.39;51.16;103403.16;4985307;28;20377;-76
2023/01/22 04:58:38;;;;;;;3.88;1.90;;;;;;;-1.24;51.04;103398.81;4985897;28;20121;-75
2023/01/22 05:01:04;;;;;;;3.45;1.80;;;;;;;-1.44;50.82;103390.13;5001774;28;20037;-76
2023/01/22 05:03:31;;;;;;;3.53;2.17;;;;;;;-1.31;51.05;103395.84;5003662;28;20180;-76
2023/01/22 05:06:01;;;;;;;3.92;1.95;;;;;;;-1.46;51.32;103395.97;5001522;28;20087;-76
2023/01/22 05:08:27;;;;;;;4.50;1.70;;;;;;;-1.17;50.86;103384.59;5002174;28;20516;-77
2023/01/22 05:10:52;;;;;;;3.35;1.63;;;;;;;-1.31;51.32;103393.28;5000658;28;20117;-76
2023/01/22 05:13:23;;;;;;;7.93;2.08;;;;;;;-1.25;51.31;103391.03;4985920;28;20130;-77
2023/01/22 05:15:49;;;;;;;3.20;1.67;;;;;;;-1.32;51.32;103394.97;5001994;28;20050;-78
2023/01/22 05:18:16;;;;;;;5.00;2.42;;;;;;;-1.61;51.90;103390.94;4987580;28;20076;-76
2023/01/22 05:20:47;;;;;;;4.32;1.48;;;;;;;-1.50;51.37;103391.50;4985467;28;20553;-78
2023/01/22 05:23:14;;;;;;;6.15;1.60;;;;;;;-1.32;50.81;103391.53;4988115;28;20054;-77
2023/01/22 05:25:46;;;;;;;4.10;1.90;;;;;;;-1.37;50.88;103396.44;4985696;28;20515;-76
2023/01/22 05:28:13;;;;;;;3.85;1.50;;;;;;;-1.47;50.90;103399.31;5000905;28;20038;-77
2023/01/22 05:30:58;;;;;;;4.32;1.80;;;;;;;-1.44;49.79;103400.38;5000136;28;20046;-77
2023/01/22 05:33:34;;;;;;;2.92;1.70;;;;;;;-1.31;49.67;103395.84;5001078;28;20464;-77
2023/01/22 05:36:01;;;;;;;4.40;1.52;;;;;;;-1.43;50.08;103402.13;5001858;28;20637;-76
2023/01/22 05:38:28;;;;;;;3.55;2.30;;;;;;;-1.31;49.32;103404.41;4986804;28;20105;-79
2023/01/22 05:40:54;;;;;;;2.08;1.52;;;;;;;-1.27;49.33;103408.03;4984390;28;20029;-78
2023/01/22 05:43:21;;;;;;;1.52;1.02;;;;;;;-1.39;49.83;103408.31;4985176;28;20044;-76
2023/01/22 05:45:52;;;;;;;2.10;1.25;;;;;;;-1.48;50.16;103406.16;5003674;28;20033;-76
2023/01/22 05:48:36;;;;;;;3.20;1.35;;;;;;;-1.46;50.18;103401.09;4987440;28;20642;-77
2023/01/22 05:51:10;;;;;;;2.17;1.30;;;;;;;-1.30;49.81;103413.03;4988124;28;20053;-77
2023/01/22 05:53:36;;;;;;;2.80;1.77;;;;;;;-1.21;49.63;103408.34;4998578;28;20037;-76
2023/01/22 05:56:03;;;;;;;4.22;2.15;;;;;;;-1.45;50.16;103416.56;4985502;28;20345;-77
2023/01/22 05:58:33;;;;;;;3.20;2.40;;;;;;;-1.25;50.22;103416.69;4985002;28;20038;-76
2023/01/22 06:00:58;;;;;;;3.35;2.38;;;;;;;-1.37;50.41;103419.53;4986076;28;20034;-76
2023/01/22 06:03:29;;;;;;;3.17;2.38;;;;;;;-1.09;49.72;103423.47;4984604;28;20064;-78
2023/01/22 06:06:04;;;;;;;2.88;2.40;;;;;;;-1.05;49.66;103422.84;4999646;28;20038;-75
2023/01/22 06:08:31;;;;;;;3.50;2.45;;;;;;;-1.11;50.23;103413.09;4999629;28;20108;-75
2023/01/22 06:11:09;;;;;;;6.93;2.38;;;;;;;-1.42;50.53;103421.88;4989081;23;20041;-76
2023/01/22 06:13:35;;;;;;;4.90;2.40;;;;;;;-1.23;50.53;103425.34;4975277;28;21734;-76
2023/01/22 06:16:13;;;;;;;5.63;1.92;;;;;;;-1.18;50.44;103424.75;4976756;28;20061;-77
2023/01/22 06:19:06;;;;;;;3.97;2.33;;;;;;;-1.11;50.27;103427.63;4982361;28;20034;-77
2023/01/22 06:21:39;;;;;;;2.65;1.85;;;;;;;-1.21;50.37;103419.47;4980239;28;20048;-78
2023/01/22 06:24:07;;;;;;;6.32;3.05;;;;;;;-1.07;50.07;103415.03;4983086;28;20119;-75
2023/01/22 06:26:32;;;;;;;4.10;1.92;;;;;;;-1.06;50.15;103419.41;4980304;28;20054;-76
2023/01/22 06:28:59;;;;;;;5.85;2.53;;;;;;;-1.22;50.30;103422.88;4968836;28;20034;-76
2023/01/22 06:31:25;;;;;;;3.33;2.30;;;;;;;-1.06;50.36;103424.53;4979511;28;20042;-75
2023/01/22 06:33:52;;;;;;;4.63;2.72;;;;;;;-1.05;50.18;103416.00;4981700;28;20046;-76
2023/01/22 06:36:18;;;;;;;7.13;2.67;;;;;;;-1.06;49.91;103415.91;4979903;28;20034;-78
2023/01/22 06:38:44;;;;;;;4.13;2.17;;;;;;;-1.30;50.35;103413.03;4983916;28;20041;-76
2023/01/22 06:41:14;;;;;;;6.43;2.67;;;;;;;-1.17;49.92;103410.25;4981308;28;20022;-77
2023/01/22 06:43:41;;;;;;;4.20;1.85;;;;;;;-1.20;49.81;103421.25;4967591;28;20041;-76
2023/01/22 06:46:07;;;;;;;3.33;2.25;;;;;;;-1.20;49.95;103423.81;4981336;28;20033;-77
2023/01/22 06:48:51;;;;;;;2.90;2.38;;;;;;;-1.15;49.88;103424.06;4980142;28;20053;-76
2023/01/22 06:51:17;;;;;;;4.38;2.83;;;;;;;-1.16;50.00;103422.28;4979959;28;20034;-76
2023/01/22 06:53:45;;;;;;;4.18;2.33;;;;;;;-1.15;49.91;103426.63;4946921;28;20455;-75
2023/01/22 06:56:10;;;;;;;3.50;1.83;;;;;;;-1.22;50.15;103427.09;4979659;28;20176;-76
2023/01/22 06:58:36;;;;;;;3.97;2.65;;;;;;;-1.16;49.96;103432.53;4978063;28;20038;-75
2023/01/22 07:01:04;;;;;;;4.47;2.97;;;;;;;-1.12;49.99;103436.16;4982227;28;20049;-76
2023/01/22 07:03:30;;;;;;;4.90;2.90;;;;;;;-1.04;49.91;103433.19;4979675;28;20039;-76
2023/01/22 07:05:58;;;;;;;3.72;2.75;;;;;;;-1.08;50.04;103441.50;4979004;28;20070;-76
2023/01/22 07:08:24;;;;;;;5.35;2.75;;;;;;;-1.10;50.11;103437.09;4979587;28;20064;-76
2023/01/22 07:10:50;;;;;;;3.50;2.38;;;;;;;-1.12;50.22;103444.72;4981735;28;20865;-75
2023/01/22 07:13:16;;;;;;;3.90;2.92;;;;;;;-0.85;49.55;103446.94;4980284;28;20054;-75
2023/01/22 07:15:42;;;;;;;5.00;3.17;;;;;;;-1.21;49.71;103447.72;4967429;28;20034;-75
2023/01/22 07:18:09;;;;;;;3.53;2.60;;;;;;;-1.02;49.78;103447.00;4983913;28;20587;-76
2023/01/22 07:20:35;;;;;;;3.38;2.85;;;;;;;-1.22;49.24;103452.75;4983556;28;20046;-77
2023/01/22 07:23:02;;;;;;;7.43;3.47;;;;;;;-1.07;49.43;103456.09;4965944;28;20174;-78
2023/01/22 07:25:28;;;;;;;7.57;3.15;;;;;;;-1.09;49.10;103455.13;4981293;28;20065;-76
2023/01/22 07:28:01;;;;;;;4.60;2.70;;;;;;;-1.35;49.80;103455.50;4982977;28;20050;-76
2023/01/22 07:30:28;;;;;;;5.18;3.50;;;;;;;-1.21;49.81;103449.41;4982536;28;20092;-76
2023/01/22 07:32:59;;;;;;;4.25;3.60;;;;;;;-1.41;49.93;103454.41;4981479;28;20146;-75
2023/01/22 07:35:25;;;;;;;4.80;3.15;;;;;;;-1.57;50.96;103456.97;4981128;28;20475;-75
2023/01/22 07:37:52;;;;;;;4.28;3.88;;;;;;;-1.53;50.32;103451.22;4982743;28;20128;-76
2023/01/22 07:40:18;;;;;;;6.65;3.35;;;;;;;-1.68;50.88;103452.97;4982190;28;20027;-77
2023/01/22 07:42:45;;;;;;;5.32;2.80;;;;;;;-1.65;50.75;103451.44;4983574;28;20137;-76
2023/01/22 07:45:11;;;;;;;5.65;3.58;;;;;;;-1.73;50.50;103451.84;4984863;28;20205;-76
2023/01/22 07:47:37;;;;;;;4.97;3.13;;;;;;;-1.52;50.13;103452.09;4982779;28;20554;-76
2023/01/22 07:50:03;;;;;;;5.93;3.53;;;;;;;-1.69;50.67;103458.88;4982657;28;20034;-77
2023/01/22 07:52:28;;;;;;;6.05;3.38;;;;;;;-1.54;50.63;103457.13;4981427;28;20066;-76
2023/01/22 07:54:54;;;;;;;5.50;3.53;;;;;;;-1.92;51.73;103453.44;4980174;28;20121;-76
2023/01/22 07:57:20;;;;;;;7.28;3.97;;;;;;;-1.74;51.15;103450.09;4981567;28;20038;-78
2023/01/22 07:59:48;;;;;;;5.13;3.40;;;;;;;-1.81;51.38;103456.56;4983327;28;20113;-77
2023/01/22 08:02:15;;;;;;;4.32;3.30;;;;;;;-1.86;51.39;103456.34;4981093;28;20038;-76
2023/01/22 08:04:41;;;;;;;6.10;3.33;;;;;;;-1.85;51.42;103457.22;4977441;28;20026;-76
2023/01/22 08:07:17;;;;;;;6.07;2.95;;;;;;;-1.67;51.05;103462.41;4979181;28;20070;-79
2023/01/22 08:09:43;;;;;;;4.80;3.65;;;;;;;-1.74;51.41;103453.53;4980057;28;20062;-76
2023/01/22 08:12:09;;;;;;;5.20;3.35;;;;;;;-1.93;51.98;103459.38;4979326;28;20061;-76
2023/01/22 08:14:34;;;;;;;6.45;3.05;;;;;;;-1.52;51.09;103452.09;4978230;28;20035;-76
2023/01/22 08:17:00;;;;;;;6.18;4.22;;;;;;;-1.57;51.17;103462.13;4977493;28;20038;-76
2023/01/22 08:19:28;;;;;;;5.13;2.75;;;;;;;-1.51;51.02;103462.44;4979958;28;20045;-77
2023/01/22 08:21:54;;;;;;;4.00;3.28;;;;;;;-1.60;51.48;103465.41;4978932;28;20041;-76
2023/01/22 08:24:20;;;;;;;6.55;3.40;;;;;;;-1.53;51.46;103469.16;4979504;28;20101;-76
2023/01/22 08:26:45;;;;;;;6.22;3.78;;;;;;;-1.63;51.38;103474.59;4981647;28;20476;-76
2023/01/22 08:29:12;;;;;;;6.80;3.47;;;;;;;-1.48;51.46;103471.97;4983970;28;20262;-77
2023/01/22 08:31:37;;;;;;;7.90;3.40;;;;;;;-1.54;51.66;103476.78;4980479;28;20490;-76
2023/01/22 08:34:03;;;;;;;5.75;3.35;;;;;;;-1.38;50.97;103479.31;4982528;28;20049;-77
2023/01/22 08:36:28;;;;;;;4.95;3.10;;;;;;;-1.48;51.24;103475.41;4977634;28;20077;-78
2023/01/22 08:38:54;;;;;;;6.65;3.80;;;;;;;-1.46;51.17;103466.13;4985810;28;20118;-77
2023/01/22 08:41:20;;;;;;;4.72;3.67;;;;;;;-1.32;51.16;103478.78;4980648;28;20053;-76
2023/01/22 08:43:45;;;;;;;7.82;3.90;;;;;;;-1.44;51.33;103464.50;4963600;28;20030;-75
2023/01/22 08:46:11;;;;;;;8.05;4.80;;;;;;;-1.08;50.58;103468.88;4980882;28;20034;-76
2023/01/22 08:48:36;;;;;;;4.22;3.50;;;;;;;-1.10;50.78;103476.47;4980450;28;20038;-76
2023/01/22 08:51:02;;;;;;;7.28;3.75;;;;;;;-1.30;51.17;103469.47;4964762;28;20057;-75
2023/01/22 08:53:27;;;;;;;5.55;3.45;;;;;;;-1.20;51.01;103469.13;4979908;28;20077;-77
2023/01/22 08:55:53;;;;;;;5.13;3.70;;;;;;;-1.49;51.51;103462.50;4981022;28;20257;-77
2023/01/22 08:58:24;;;;;;;5.53;3.72;;;;;;;-1.32;51.16;103471.06;4977763;28;20529;-78
2023/01/22 09:00:50;;;;;;;9.25;3.75;;;;;;;-1.13;51.33;103478.88;4980089;28;20034;-77
2023/01/22 09:03:15;;;;;;;8.70;4.03;;;;;;;-1.09;50.76;103475.66;4979011;28;20034;-75
2023/01/22 09:05:41;;;;;;;5.57;3.45;;;;;;;-0.99;50.59;103480.50;4981076;28;20121;-76
2023/01/22 09:08:07;;;;;;;12.23;4.88;;;;;;;-1.02;50.79;103472.66;4981706;28;20079;-76
2023/01/22 09:10:32;;;;;;;5.90;4.22;;;;;;;-1.06;51.09;103482.63;4982784;28;20394;-76
2023/01/22 09:12:59;;;;;;;5.60;3.58;;;;;;;-1.14;51.51;103482.25;4979287;28;20037;-76
2023/01/22 09:15:24;;;;;;;7.13;3.88;;;;;;;-1.13;51.25;103478.88;4978076;28;20377;-75
2023/01/22 09:17:50;;;;;;;7.55;3.90;;;;;;;-0.87;50.71;103482.78;4975215;28;20046;-77
2023/01/22 09:20:16;;;;;;;6.47;3.88;;;;;;;-0.78;50.11;103479.78;4977913;28;20096;-76
2023/01/22 09:22:44;;;;;;;5.90;3.75;;;;;;;-0.95;51.16;103472.94;4976619;28;20388;-76
2023/01/22 09:25:10;;;;;;;4.88;3.45;;;;;;;-0.92;51.23;103483.38;4976465;28;20061;-77
2023/01/22 09:27:35;;;;;;;8.68;4.30;;;;;;;-0.98;51.52;103479.69;4971817;28;21216;-76
2023/01/22 09:30:01;;;;;;;4.13;3.35;;;;;;;-1.01;51.69;103474.41;4958003;28;20757;-77
2023/01/22 09:32:27;;;;;;;4.53;3.35;;;;;;;-0.78;50.72;103478.09;4973048;28;20488;-77
2023/01/22 09:34:52;;;;;;;8.20;4.10;;;;;;;-0.76;50.88;103478.19;4972072;28;20038;-76
2023/01/22 09:37:18;;;;;;;7.95;3.45;;;;;;;-0.66;50.48;103476.94;4973037;28;20046;-76
2023/01/22 09:39:43;;;;;;;6.63;4.00;;;;;;;-0.80;50.61;103477.13;4973223;28;20162;-75
2023/01/22 09:42:18;;;;;;;5.57;3.78;;;;;;;-0.83;50.94;103478.69;4974857;28;20050;-77
2023/01/22 09:44:47;;;;;;;5.18;3.75;;;;;;;-0.98;51.48;103474.56;4972725;28;20494;-76
2023/01/22 09:47:20;;;;;;;5.63;4.32;;;;;;;-0.84;50.75;103482.06;4973229;28;20363;-76
2023/01/22 09:50:03;;;;;;;6.95;2.88;;;;;;;-0.58;50.33;103484.22;4973253;28;20038;-77
2023/01/22 09:52:29;;;;;;;;;;;;;;;-0.47;50.21;103477.03;4973492;28;20042;-76
2023/01/22 09:54:55;;;;;;;3.90;2.90;;;;;;;-0.78;51.19;103492.63;4973387;28;19918;-78
2023/01/22 09:57:20;;;;;;;7.38;3.50;;;;;;;-0.54;50.63;103486.94;4973950;28;20050;-76
2023/01/22 09:59:54;;;;;;;7.05;4.10;;;;;;;-0.54;50.40;103486.94;4975487;28;20539;-76
2023/01/22 10:02:41;;;;;;;5.22;2.63;;;;;;;-0.53;50.31;103483.56;4975721;28;20034;-77
2023/01/22 10:05:36;;;;;;;5.72;3.50;;;;;;;-0.94;51.39;103485.00;4976576;28;20049;-76
2023/01/22 10:08:05;;;;;;;5.45;3.10;;;;;;;-0.52;50.26;103483.63;4980174;28;20671;-78
2023/01/22 10:10:31;;;;;;;6.35;3.30;;;;;;;-0.57;51.06;103483.41;4976727;28;20129;-75
2023/01/22 10:13:16;;;;;;;8.05;3.30;;;;;;;-0.57;51.19;103482.53;4978058;28;20042;-78
2023/01/22 10:15:41;;;;;;;5.13;3.20;;;;;;;-0.40;50.56;103476.50;4979874;28;20042;-78
2023/01/22 10:18:25;;;;;;;6.78;3.60;;;;;;;-0.57;51.38;103477.41;4977984;28;20061;-76
2023/01/22 10:20:52;;;;;;;8.05;3.53;;;;;;;-0.46;51.55;103475.31;4980181;28;20049;-76
2023/01/22 10:23:21;;;;;;;4.82;3.28;;;;;;;-0.37;51.25;103468.06;4976585;28;20050;-76
2023/01/22 10:25:47;;;;;;;6.40;3.03;;;;;;;-0.50;51.15;103475.97;4980219;28;20278;-77
2023/01/22 10:28:14;;;;;;;6.88;2.95;;;;;;;-0.41;51.66;103471.31;4977712;28;20046;-76
2023/01/22 10:30:47;;;;;;;5.05;4.00;;;;;;;-0.24;51.09;103460.09;4977150;28;20081;-76
2023/01/22 10:33:20;;;;;;;8.00;3.35;;;;;;;-0.01;50.21;103462.88;4979093;28;20319;-76
2023/01/22 10:35:47;;;;;;;5.03;3.88;;;;;;;-0.00;50.52;103467.19;4978648;28;20038;-76
2023/01/22 10:38:29;;;;;;;3.90;2.47;;;;;;;-0.04;50.55;103455.88;4979477;28;20332;-76
2023/01/22 10:40:58;;;;;;;4.93;3.03;;;;;;;0.02;50.80;103465.59;4979657;28;20026;-78
2023/01/22 10:43:31;;;;;;;6.43;3.75;;;;;;;0.52;49.42;103453.19;4977061;28;20042;-76
2023/01/22 10:46:03;;;;;;;6.30;3.13;;;;;;;0.32;49.67;103449.75;4982157;28;20255;-76
2023/01/22 10:48:29;;;;;;;7.40;3.58;;;;;;;0.19;49.87;103450.91;4966201;28;20042;-76
2023/01/22 10:51:16;;;;;;;3.72;3.30;;;;;;;0.53;49.33;103444.69;4984755;28;20057;-76
2023/01/22 10:53:54;;;;;;;5.93;3.28;;;;;;;0.68;49.14;103446.22;4981760;28;20246;-77
2023/01/22 10:56:28;;;;;;;9.75;3.80;;;;;;;0.59;49.50;103440.69;4981767;28;20050;-75
2023/01/22 10:58:55;;;;;;;11.40;4.65;;;;;;;0.86;48.71;103440.09;4981999;28;20642;-76
2023/01/22 11:01:38;;;;;;;8.65;2.67;;;;;;;0.76;48.82;103450.78;4982189;28;20038;-77
2023/01/22 11:04:21;;;;;;;6.50;3.53;;;;;;;0.92;48.77;103445.47;4983661;28;20161;-78
2023/01/22 11:06:51;;;;;;;6.10;4.65;;;;;;;0.71;49.78;103444.59;4981730;28;20548;-77
2023/01/22 11:09:22;;;;;;;7.43;2.78;;;;;;;0.53;49.93;103449.81;4980898;28;20038;-77
2023/01/22 11:12:03;;;;;;;3.63;1.98;;;;;;;0.58;49.95;103444.03;4980240;28;20141;-76
2023/01/22 11:14:34;;;;;;;6.90;3.33;;;;;;;0.79;49.37;103443.19;4981297;28;20201;-76
2023/01/22 11:17:09;;;;;;;11.90;6.50;;;;;;;0.62;49.38;103440.78;4982351;28;20042;-77
2023/01/22 11:19:49;;;;;;;4.85;4.15;;;;;;;0.25;50.51;103441.75;4982948;28;20831;-77
2023/01/22 11:22:22;;;;;;;5.95;2.47;;;;;;;0.37;50.49;103445.72;4981799;28;20368;-76
2023/01/22 11:24:48;;;;;;;4.35;2.10;;;;;;;0.40;50.39;103448.41;4982213;28;20033;-78
2023/01/22 11:27:13;;;;;;;4.88;2.83;;;;;;;0.24;50.20;103447.72;4980762;28;20050;-76
2023/01/22 11:29:57;;;;;;;4.30;2.35;;;;;;;0.18;50.27;103442.31;4981165;28;20136;-76
2023/01/22 11:32:35;;;;;;;10.13;2.85;;;;;;;0.37;50.83;103438.00;4980961;28;21562;-76
2023/01/22 11:35:17;;;;;;;12.00;4.88;;;;;;;0.26;50.63;103435.81;4979780;28;20038;-76
2023/01/22 11:38:31;;;;;;;15.63;7.55;;;;;;;0.31;50.59;103435.16;4981570;28;21141;-76
2023/01/22 11:41:26;;;;;;;19.42;7.32;;;;;;;0.15;50.69;103433.59;4969506;28;20093;-76
2023/01/22 11:44:08;;;;;;;11.02;3.42;;;;;;;-0.13;51.86;103430.63;4981259;28;20123;-76
2023/01/22 11:46:59;;;;;;;10.70;6.20;;;;;;;0.07;51.08;103433.22;4979862;28;20177;-77